sensor_id;sensor_type;location;lat;lon;timestamp;temperature;humidity
71082;SHT31;58740;50.672;18.690;2023-07-29T00:02:06;18.56;79.90
71082;SHT31;58740;50.672;18.690;2023-07-29T00:04:34;18.51;79.86
71082;SHT31;58740;50.672;18.690;2023-07-29T00:07:02;18.45;79.86
71082;SHT31;58740;50.672;18.690;2023-07-29T00:09:30;18.39;79.92
71082;SHT31;58740;50.672;18.690;2023-07-29T00:11:57;18.34;79.79
71082;SHT31;58740;50.672;18.690;2023-07-29T00:14:25;18.29;79.70
71082;SHT31;58740;50.672;18.690;2023-07-29T00:16:53;18.25;79.58
71082;SHT31;58740;50.672;18.690;2023-07-29T00:19:20;18.19;79.71
71082;SHT31;58740;50.672;18.690;2023-07-29T00:21:50;18.14;79.69
71082;SHT31;58740;50.672;18.690;2023-07-29T00:24:18;18.10;79.66
71082;SHT31;58740;50.672;18.690;2023-07-29T00:26:46;18.07;79.64
71082;SHT31;58740;50.672;18.690;2023-07-29T00:29:13;18.03;79.71
71082;SHT31;58740;50.672;18.690;2023-07-29T00:31:41;18.00;79.60
71082;SHT31;58740;50.672;18.690;2023-07-29T00:34:09;17.98;79.62
71082;SHT31;58740;50.672;18.690;2023-07-29T00:36:37;17.94;79.76
71082;SHT31;58740;50.672;18.690;2023-07-29T00:39:05;17.92;79.83
71082;SHT31;58740;50.672;18.690;2023-07-29T00:41:32;17.90;79.87
71082;SHT31;58740;50.672;18.690;2023-07-29T00:44:00;17.88;79.91
71082;SHT31;58740;50.672;18.690;2023-07-29T00:46:28;17.87;79.95
71082;SHT31;58740;50.672;18.690;2023-07-29T00:48:56;17.85;79.87
71082;SHT31;58740;50.672;18.690;2023-07-29T00:51:24;17.83;79.91
71082;SHT31;58740;50.672;18.690;2023-07-29T00:53:52;17.81;80.01
71082;SHT31;58740;50.672;18.690;2023-07-29T00:56:20;17.79;80.13
71082;SHT31;58740;50.672;18.690;2023-07-29T00:58:47;17.74;80.28
71082;SHT31;58740;50.672;18.690;2023-07-29T01:01:17;17.71;80.52
71082;SHT31;58740;50.672;18.690;2023-07-29T01:03:45;17.70;80.34
71082;SHT31;58740;50.672;18.690;2023-07-29T01:15:35;17.62;79.99
71082;SHT31;58740;50.672;18.690;2023-07-29T01:18:23;17.60;79.94
71082;SHT31;58740;50.672;18.690;2023-07-29T01:21:02;17.57;79.82
71082;SHT31;58740;50.672;18.690;2023-07-29T01:23:33;17.55;79.79
71082;SHT31;58740;50.672;18.690;2023-07-29T01:26:02;17.53;79.75
71082;SHT31;58740;50.672;18.690;2023-07-29T01:28:31;17.52;79.70
71082;SHT31;58740;50.672;18.690;2023-07-29T01:31:07;17.48;79.82
71082;SHT31;58740;50.672;18.690;2023-07-29T01:33:55;17.45;80.01
71082;SHT31;58740;50.672;18.690;2023-07-29T01:36:33;17.41;80.10
71082;SHT31;58740;50.672;18.690;2023-07-29T01:39:08;17.39;79.99
71082;SHT31;58740;50.672;18.690;2023-07-29T01:41:39;17.37;79.91
71082;SHT31;58740;50.672;18.690;2023-07-29T01:44:08;17.35;79.82
71082;SHT31;58740;50.672;18.690;2023-07-29T01:46:37;17.34;79.84
71082;SHT31;58740;50.672;18.690;2023-07-29T01:49:05;17.31;79.88
71082;SHT31;58740;50.672;18.690;2023-07-29T01:51:33;17.31;80.01
71082;SHT31;58740;50.672;18.690;2023-07-29T01:54:01;17.30;79.91
71082;SHT31;58740;50.672;18.690;2023-07-29T01:56:29;17.27;79.80
71082;SHT31;58740;50.672;18.690;2023-07-29T01:58:56;17.25;79.82
71082;SHT31;58740;50.672;18.690;2023-07-29T02:01:24;17.23;79.88
71082;SHT31;58740;50.672;18.690;2023-07-29T02:03:52;17.24;80.06
71082;SHT31;58740;50.672;18.690;2023-07-29T02:06:23;17.22;79.93
71082;SHT31;58740;50.672;18.690;2023-07-29T02:08:51;17.21;79.92
71082;SHT31;58740;50.672;18.690;2023-07-29T02:11:20;17.20;80.00
71082;SHT31;58740;50.672;18.690;2023-07-29T02:13:54;17.18;80.21
71082;SHT31;58740;50.672;18.690;2023-07-29T02:16:23;17.18;80.29
71082;SHT31;58740;50.672;18.690;2023-07-29T02:18:51;17.17;80.37
71082;SHT31;58740;50.672;18.690;2023-07-29T02:21:22;17.17;80.24
71082;SHT31;58740;50.672;18.690;2023-07-29T02:23:50;17.17;80.38
71082;SHT31;58740;50.672;18.690;2023-07-29T02:26:18;17.17;80.22
71082;SHT31;58740;50.672;18.690;2023-07-29T02:28:46;17.15;80.21
71082;SHT31;58740;50.672;18.690;2023-07-29T02:31:20;17.14;80.22
71082;SHT31;58740;50.672;18.690;2023-07-29T02:33:51;17.13;80.30
71082;SHT31;58740;50.672;18.690;2023-07-29T02:36:19;17.12;80.21
71082;SHT31;58740;50.672;18.690;2023-07-29T02:38:47;17.12;80.06
71082;SHT31;58740;50.672;18.690;2023-07-29T02:41:15;17.11;79.96
71082;SHT31;58740;50.672;18.690;2023-07-29T02:43:47;17.10;79.98
71082;SHT31;58740;50.672;18.690;2023-07-29T02:46:16;17.08;79.83
71082;SHT31;58740;50.672;18.690;2023-07-29T02:48:45;17.07;79.78
71082;SHT31;58740;50.672;18.690;2023-07-29T02:51:13;17.05;79.85
71082;SHT31;58740;50.672;18.690;2023-07-29T02:53:40;17.04;79.88
71082;SHT31;58740;50.672;18.690;2023-07-29T02:56:08;17.02;79.83
71082;SHT31;58740;50.672;18.690;2023-07-29T02:58:37;17.01;79.72
71082;SHT31;58740;50.672;18.690;2023-07-29T03:01:05;16.98;79.67
71082;SHT31;58740;50.672;18.690;2023-07-29T03:03:33;16.95;79.65
71082;SHT31;58740;50.672;18.690;2023-07-29T03:06:02;16.94;79.99
71082;SHT31;58740;50.672;18.690;2023-07-29T03:08:33;16.92;79.90
71082;SHT31;58740;50.672;18.690;2023-07-29T03:11:05;16.90;79.68
71082;SHT31;58740;50.672;18.690;2023-07-29T03:13:35;16.87;79.70
71082;SHT31;58740;50.672;18.690;2023-07-29T03:16:14;16.83;79.82
71082;SHT31;58740;50.672;18.690;2023-07-29T03:18:44;16.81;79.92
71082;SHT31;58740;50.672;18.690;2023-07-29T03:21:12;16.82;79.85
71082;SHT31;58740;50.672;18.690;2023-07-29T03:23:40;16.81;79.90
71082;SHT31;58740;50.672;18.690;2023-07-29T03:26:08;16.81;79.99
71082;SHT31;58740;50.672;18.690;2023-07-29T03:28:39;16.81;79.97
71082;SHT31;58740;50.672;18.690;2023-07-29T03:31:09;16.81;80.02
71082;SHT31;58740;50.672;18.690;2023-07-29T03:33:38;16.82;80.08
71082;SHT31;58740;50.672;18.690;2023-07-29T03:36:06;16.84;80.09
71082;SHT31;58740;50.672;18.690;2023-07-29T03:38:34;16.86;80.08
71082;SHT31;58740;50.672;18.690;2023-07-29T03:41:03;16.87;80.18
71082;SHT31;58740;50.672;18.690;2023-07-29T03:43:30;16.87;80.27
71082;SHT31;58740;50.672;18.690;2023-07-29T03:45:58;16.88;80.30
71082;SHT31;58740;50.672;18.690;2023-07-29T03:48:26;16.92;80.31
71082;SHT31;58740;50.672;18.690;2023-07-29T03:50:54;16.95;80.32
71082;SHT31;58740;50.672;18.690;2023-07-29T03:53:22;16.98;80.44
71082;SHT31;58740;50.672;18.690;2023-07-29T03:55:49;17.01;80.46
71082;SHT31;58740;50.672;18.690;2023-07-29T03:58:18;17.06;80.58
71082;SHT31;58740;50.672;18.690;2023-07-29T04:00:45;17.11;80.67
71082;SHT31;58740;50.672;18.690;2023-07-29T04:03:13;17.15;80.71
71082;SHT31;58740;50.672;18.690;2023-07-29T04:05:41;17.21;80.77
71082;SHT31;58740;50.672;18.690;2023-07-29T04:08:09;17.25;80.71
71082;SHT31;58740;50.672;18.690;2023-07-29T04:10:37;17.29;80.80
71082;SHT31;58740;50.672;18.690;2023-07-29T04:13:05;17.33;80.89
71082;SHT31;58740;50.672;18.690;2023-07-29T04:15:33;17.36;80.98
71082;SHT31;58740;50.672;18.690;2023-07-29T04:18:00;17.41;80.98
71082;SHT31;58740;50.672;18.690;2023-07-29T04:20:28;17.44;81.08
71082;SHT31;58740;50.672;18.690;2023-07-29T04:22:57;17.47;81.13
71082;SHT31;58740;50.672;18.690;2023-07-29T04:25:36;17.50;81.18
71082;SHT31;58740;50.672;18.690;2023-07-29T04:28:04;17.53;81.28
71082;SHT31;58740;50.672;18.690;2023-07-29T04:30:32;17.58;81.35
71082;SHT31;58740;50.672;18.690;2023-07-29T04:33:00;17.64;81.34
71082;SHT31;58740;50.672;18.690;2023-07-29T04:35:28;17.70;81.32
71082;SHT31;58740;50.672;18.690;2023-07-29T04:37:56;17.77;81.41
71082;SHT31;58740;50.672;18.690;2023-07-29T04:40:24;17.82;81.53
71082;SHT31;58740;50.672;18.690;2023-07-29T04:42:52;17.88;81.35
71082;SHT31;58740;50.672;18.690;2023-07-29T04:45:20;17.95;81.19
71082;SHT31;58740;50.672;18.690;2023-07-29T04:47:48;18.01;81.25
71082;SHT31;58740;50.672;18.690;2023-07-29T04:50:16;18.05;81.25
71082;SHT31;58740;50.672;18.690;2023-07-29T04:52:44;18.12;81.47
71082;SHT31;58740;50.672;18.690;2023-07-29T04:55:12;18.19;81.47
71082;SHT31;58740;50.672;18.690;2023-07-29T04:57:39;18.26;81.50
71082;SHT31;58740;50.672;18.690;2023-07-29T05:00:07;18.34;81.13
71082;SHT31;58740;50.672;18.690;2023-07-29T05:02:35;18.43;81.21
71082;SHT31;58740;50.672;18.690;2023-07-29T05:05:03;18.49;81.29
71082;SHT31;58740;50.672;18.690;2023-07-29T05:07:32;18.56;81.32
71082;SHT31;58740;50.672;18.690;2023-07-29T05:09:59;18.63;81.33
71082;SHT31;58740;50.672;18.690;2023-07-29T05:12:27;18.72;81.41
71082;SHT31;58740;50.672;18.690;2023-07-29T05:14:56;18.81;81.37
71082;SHT31;58740;50.672;18.690;2023-07-29T05:17:24;18.88;80.93
71082;SHT31;58740;50.672;18.690;2023-07-29T05:19:52;18.97;80.72
71082;SHT31;58740;50.672;18.690;2023-07-29T05:22:20;19.05;80.37
71082;SHT31;58740;50.672;18.690;2023-07-29T05:24:48;19.13;80.08
71082;SHT31;58740;50.672;18.690;2023-07-29T05:27:16;19.21;79.96
71082;SHT31;58740;50.672;18.690;2023-07-29T05:29:44;19.28;79.95
71082;SHT31;58740;50.672;18.690;2023-07-29T05:32:11;19.35;79.73
71082;SHT31;58740;50.672;18.690;2023-07-29T05:34:39;19.42;79.61
71082;SHT31;58740;50.672;18.690;2023-07-29T05:37:07;19.47;79.34
71082;SHT31;58740;50.672;18.690;2023-07-29T05:39:35;19.56;79.71
71082;SHT31;58740;50.672;18.690;2023-07-29T05:42:03;19.63;79.59
71082;SHT31;58740;50.672;18.690;2023-07-29T05:44:31;19.70;79.33
71082;SHT31;58740;50.672;18.690;2023-07-29T05:46:59;19.79;79.21
71082;SHT31;58740;50.672;18.690;2023-07-29T05:49:27;19.88;79.12
71082;SHT31;58740;50.672;18.690;2023-07-29T05:51:54;19.95;78.69
71082;SHT31;58740;50.672;18.690;2023-07-29T05:54:22;19.99;78.84
71082;SHT31;58740;50.672;18.690;2023-07-29T05:56:50;20.04;78.84
71082;SHT31;58740;50.672;18.690;2023-07-29T05:59:18;20.12;78.51
71082;SHT31;58740;50.672;18.690;2023-07-29T06:01:45;20.17;78.74
71082;SHT31;58740;50.672;18.690;2023-07-29T06:04:13;20.25;78.97
71082;SHT31;58740;50.672;18.690;2023-07-29T06:06:41;20.32;79.05
71082;SHT31;58740;50.672;18.690;2023-07-29T06:09:08;20.40;78.65
71082;SHT31;58740;50.672;18.690;2023-07-29T06:11:36;20.50;78.80
71082;SHT31;58740;50.672;18.690;2023-07-29T06:14:04;20.60;78.69
71082;SHT31;58740;50.672;18.690;2023-07-29T06:16:32;20.73;78.96
71082;SHT31;58740;50.672;18.690;2023-07-29T06:18:59;20.84;78.39
71082;SHT31;58740;50.672;18.690;2023-07-29T06:21:27;20.93;78.17
71082;SHT31;58740;50.672;18.690;2023-07-29T06:23:55;21.01;77.40
71082;SHT31;58740;50.672;18.690;2023-07-29T06:26:22;21.09;77.20
71082;SHT31;58740;50.672;18.690;2023-07-29T06:28:50;21.19;77.13
71082;SHT31;58740;50.672;18.690;2023-07-29T06:31:18;21.32;77.47
71082;SHT31;58740;50.672;18.690;2023-07-29T06:33:46;21.42;77.20
71082;SHT31;58740;50.672;18.690;2023-07-29T06:36:13;21.44;76.20
71082;SHT31;58740;50.672;18.690;2023-07-29T06:38:41;21.52;76.19
71082;SHT31;58740;50.672;18.690;2023-07-29T06:41:09;21.64;76.18
71082;SHT31;58740;50.672;18.690;2023-07-29T06:43:41;21.76;76.13
71082;SHT31;58740;50.672;18.690;2023-07-29T06:46:08;21.88;75.65
71082;SHT31;58740;50.672;18.690;2023-07-29T06:48:37;22.00;75.35
71082;SHT31;58740;50.672;18.690;2023-07-29T06:51:04;22.11;75.21
71082;SHT31;58740;50.672;18.690;2023-07-29T06:53:32;22.17;74.37
71082;SHT31;58740;50.672;18.690;2023-07-29T06:56:01;22.27;74.20
71082;SHT31;58740;50.672;18.690;2023-07-29T06:58:29;22.38;74.28
71082;SHT31;58740;50.672;18.690;2023-07-29T07:00:57;22.45;73.16
71082;SHT31;58740;50.672;18.690;2023-07-29T07:03:25;22.53;73.12
71082;SHT31;58740;50.672;18.690;2023-07-29T07:05:53;22.61;72.86
71082;SHT31;58740;50.672;18.690;2023-07-29T07:08:21;22.69;72.99
71082;SHT31;58740;50.672;18.690;2023-07-29T07:10:49;22.78;72.78
71082;SHT31;58740;50.672;18.690;2023-07-29T07:13:17;22.88;72.70
71082;SHT31;58740;50.672;18.690;2023-07-29T07:15:44;22.99;73.02
71082;SHT31;58740;50.672;18.690;2023-07-29T07:18:12;23.08;72.22
71082;SHT31;58740;50.672;18.690;2023-07-29T07:20:40;23.15;72.17
71082;SHT31;58740;50.672;18.690;2023-07-29T07:23:07;23.24;72.08
71082;SHT31;58740;50.672;18.690;2023-07-29T07:25:38;23.32;71.97
71082;SHT31;58740;50.672;18.690;2023-07-29T07:28:06;23.39;71.57
71082;SHT31;58740;50.672;18.690;2023-07-29T07:30:34;23.46;71.13
71082;SHT31;58740;50.672;18.690;2023-07-29T07:33:02;23.49;70.75
71082;SHT31;58740;50.672;18.690;2023-07-29T07:35:30;23.49;70.71
71082;SHT31;58740;50.672;18.690;2023-07-29T07:37:58;23.50;71.19
71082;SHT31;58740;50.672;18.690;2023-07-29T07:40:27;23.51;70.37
71082;SHT31;58740;50.672;18.690;2023-07-29T07:42:55;23.58;70.81
71082;SHT31;58740;50.672;18.690;2023-07-29T07:45:22;23.65;70.18
71082;SHT31;58740;50.672;18.690;2023-07-29T07:47:51;23.68;69.48
71082;SHT31;58740;50.672;18.690;2023-07-29T07:50:21;23.72;69.21
71082;SHT31;58740;50.672;18.690;2023-07-29T07:52:48;23.76;69.31
71082;SHT31;58740;50.672;18.690;2023-07-29T07:55:16;23.76;69.22
71082;SHT31;58740;50.672;18.690;2023-07-29T07:57:44;23.77;69.70
71082;SHT31;58740;50.672;18.690;2023-07-29T08:00:12;23.77;69.26
71082;SHT31;58740;50.672;18.690;2023-07-29T08:02:43;23.75;68.70
71082;SHT31;58740;50.672;18.690;2023-07-29T08:05:11;23.72;68.37
71082;SHT31;58740;50.672;18.690;2023-07-29T08:07:39;23.70;68.37
71082;SHT31;58740;50.672;18.690;2023-07-29T08:10:07;23.69;68.96
71082;SHT31;58740;50.672;18.690;2023-07-29T08:12:35;23.74;68.74
71082;SHT31;58740;50.672;18.690;2023-07-29T08:15:04;23.74;68.88
71082;SHT31;58740;50.672;18.690;2023-07-29T08:17:33;23.72;68.51
71082;SHT31;58740;50.672;18.690;2023-07-29T08:20:01;23.65;68.73
71082;SHT31;58740;50.672;18.690;2023-07-29T08:22:28;23.61;69.73
71082;SHT31;58740;50.672;18.690;2023-07-29T08:24:56;23.60;69.59
71082;SHT31;58740;50.672;18.690;2023-07-29T08:27:24;23.58;69.73
71082;SHT31;58740;50.672;18.690;2023-07-29T08:29:53;23.55;69.33
71082;SHT31;58740;50.672;18.690;2023-07-29T08:32:21;23.52;69.23
71082;SHT31;58740;50.672;18.690;2023-07-29T08:34:49;23.53;69.16
71082;SHT31;58740;50.672;18.690;2023-07-29T08:37:16;23.54;68.57
71082;SHT31;58740;50.672;18.690;2023-07-29T08:39:44;23.53;68.57
71082;SHT31;58740;50.672;18.690;2023-07-29T08:42:12;23.54;68.93
71082;SHT31;58740;50.672;18.690;2023-07-29T08:44:42;23.58;67.98
71082;SHT31;58740;50.672;18.690;2023-07-29T08:47:11;23.64;67.62
71082;SHT31;58740;50.672;18.690;2023-07-29T08:49:42;23.72;67.41
71082;SHT31;58740;50.672;18.690;2023-07-29T08:52:13;23.78;67.33
71082;SHT31;58740;50.672;18.690;2023-07-29T08:54:42;23.82;67.49
71082;SHT31;58740;50.672;18.690;2023-07-29T08:57:10;23.86;68.09
71082;SHT31;58740;50.672;18.690;2023-07-29T08:59:37;23.85;67.94
71082;SHT31;58740;50.672;18.690;2023-07-29T09:02:06;23.79;66.72
71082;SHT31;58740;50.672;18.690;2023-07-29T09:04:34;23.74;66.86
71082;SHT31;58740;50.672;18.690;2023-07-29T09:07:02;23.66;66.92
71082;SHT31;58740;50.672;18.690;2023-07-29T09:09:32;23.61;67.43
71082;SHT31;58740;50.672;18.690;2023-07-29T09:12:00;23.57;67.73
71082;SHT31;58740;50.672;18.690;2023-07-29T09:14:28;23.50;67.61
71082;SHT31;58740;50.672;18.690;2023-07-29T09:16:56;23.46;67.62
71082;SHT31;58740;50.672;18.690;2023-07-29T09:19:27;23.42;67.89
71082;SHT31;58740;50.672;18.690;2023-07-29T09:21:55;23.40;68.28
71082;SHT31;58740;50.672;18.690;2023-07-29T09:24:22;23.38;69.09
71082;SHT31;58740;50.672;18.690;2023-07-29T09:26:51;23.34;69.60
71082;SHT31;58740;50.672;18.690;2023-07-29T09:29:22;23.29;68.74
71082;SHT31;58740;50.672;18.690;2023-07-29T09:31:51;23.25;68.58
71082;SHT31;58740;50.672;18.690;2023-07-29T09:34:19;23.22;68.36
71082;SHT31;58740;50.672;18.690;2023-07-29T09:36:46;23.20;68.19
71082;SHT31;58740;50.672;18.690;2023-07-29T09:39:18;23.18;67.95
71082;SHT31;58740;50.672;18.690;2023-07-29T09:41:51;23.17;67.68
71082;SHT31;58740;50.672;18.690;2023-07-29T09:44:18;23.15;68.46
71082;SHT31;58740;50.672;18.690;2023-07-29T09:46:46;23.14;68.53
71082;SHT31;58740;50.672;18.690;2023-07-29T09:49:14;23.14;68.23
71082;SHT31;58740;50.672;18.690;2023-07-29T09:51:42;23.13;68.60
71082;SHT31;58740;50.672;18.690;2023-07-29T09:54:10;23.12;68.79
71082;SHT31;58740;50.672;18.690;2023-07-29T09:56:41;23.14;68.46
71082;SHT31;58740;50.672;18.690;2023-07-29T09:59:12;23.24;68.28
71082;SHT31;58740;50.672;18.690;2023-07-29T10:01:40;23.34;68.68
71082;SHT31;58740;50.672;18.690;2023-07-29T10:04:09;23.44;67.58
71082;SHT31;58740;50.672;18.690;2023-07-29T10:06:41;23.52;66.91
71082;SHT31;58740;50.672;18.690;2023-07-29T10:09:13;23.61;67.01
71082;SHT31;58740;50.672;18.690;2023-07-29T10:11:41;23.69;65.54
71082;SHT31;58740;50.672;18.690;2023-07-29T10:14:09;23.70;65.17
71082;SHT31;58740;50.672;18.690;2023-07-29T10:16:37;23.74;65.20
71082;SHT31;58740;50.672;18.690;2023-07-29T10:19:09;23.80;64.87
71082;SHT31;58740;50.672;18.690;2023-07-29T10:21:38;23.87;65.49
71082;SHT31;58740;50.672;18.690;2023-07-29T10:24:09;23.96;65.47
71082;SHT31;58740;50.672;18.690;2023-07-29T10:26:49;24.04;65.08
71082;SHT31;58740;50.672;18.690;2023-07-29T10:29:20;24.11;64.96
71082;SHT31;58740;50.672;18.690;2023-07-29T10:31:52;24.17;65.13
71082;SHT31;58740;50.672;18.690;2023-07-29T10:34:22;24.24;63.43
71082;SHT31;58740;50.672;18.690;2023-07-29T10:36:50;24.27;61.17
71082;SHT31;58740;50.672;18.690;2023-07-29T10:39:20;24.29;61.79
71082;SHT31;58740;50.672;18.690;2023-07-29T10:47:20;24.41;63.35
71082;SHT31;58740;50.672;18.690;2023-07-29T10:49:56;24.42;63.17
71082;SHT31;58740;50.672;18.690;2023-07-29T10:54:59;24.47;62.64
71082;SHT31;58740;50.672;18.690;2023-07-29T10:57:31;24.51;61.39
71082;SHT31;58740;50.672;18.690;2023-07-29T11:00:05;24.54;61.32
71082;SHT31;58740;50.672;18.690;2023-07-29T11:02:34;24.59;62.27
71082;SHT31;58740;50.672;18.690;2023-07-29T11:05:05;24.64;60.33
71082;SHT31;58740;50.672;18.690;2023-07-29T11:07:45;24.68;61.52
71082;SHT31;58740;50.672;18.690;2023-07-29T11:10:16;24.75;61.71
71082;SHT31;58740;50.672;18.690;2023-07-29T11:12:47;24.76;61.97
71082;SHT31;58740;50.672;18.690;2023-07-29T11:15:28;24.78;60.54
71082;SHT31;58740;50.672;18.690;2023-07-29T11:18:00;24.80;61.42
71082;SHT31;58740;50.672;18.690;2023-07-29T11:20:30;24.81;61.62
71082;SHT31;58740;50.672;18.690;2023-07-29T11:23:03;24.79;61.27
71082;SHT31;58740;50.672;18.690;2023-07-29T11:25:31;24.76;60.81
71082;SHT31;58740;50.672;18.690;2023-07-29T11:28:01;24.74;60.60
71082;SHT31;58740;50.672;18.690;2023-07-29T11:30:33;24.75;61.39
71082;SHT31;58740;50.672;18.690;2023-07-29T11:33:01;24.77;61.91
71082;SHT31;58740;50.672;18.690;2023-07-29T11:35:31;24.78;60.13
71082;SHT31;58740;50.672;18.690;2023-07-29T11:37:59;24.79;60.11
71082;SHT31;58740;50.672;18.690;2023-07-29T11:40:27;24.80;60.38
71082;SHT31;58740;50.672;18.690;2023-07-29T11:42:55;24.79;58.85
71082;SHT31;58740;50.672;18.690;2023-07-29T11:45:23;24.79;58.77
71082;SHT31;58740;50.672;18.690;2023-07-29T11:48:06;24.76;58.34
71082;SHT31;58740;50.672;18.690;2023-07-29T11:50:34;24.75;58.99
71082;SHT31;58740;50.672;18.690;2023-07-29T11:53:02;24.79;59.54
71082;SHT31;58740;50.672;18.690;2023-07-29T11:55:30;24.83;57.74
71082;SHT31;58740;50.672;18.690;2023-07-29T11:57:58;24.83;58.69
71082;SHT31;58740;50.672;18.690;2023-07-29T12:00:26;24.82;59.32
71082;SHT31;58740;50.672;18.690;2023-07-29T12:02:54;24.82;60.27
71082;SHT31;58740;50.672;18.690;2023-07-29T12:05:23;24.85;60.62
71082;SHT31;58740;50.672;18.690;2023-07-29T12:07:52;24.89;59.01
71082;SHT31;58740;50.672;18.690;2023-07-29T12:10:20;24.91;58.09
71082;SHT31;58740;50.672;18.690;2023-07-29T12:12:49;24.92;58.24
71082;SHT31;58740;50.672;18.690;2023-07-29T12:15:24;24.94;58.99
71082;SHT31;58740;50.672;18.690;2023-07-29T12:17:58;24.94;59.40
71082;SHT31;58740;50.672;18.690;2023-07-29T12:20:28;24.95;58.67
71082;SHT31;58740;50.672;18.690;2023-07-29T12:22:57;25.01;58.38
71082;SHT31;58740;50.672;18.690;2023-07-29T12:25:32;25.10;57.89
71082;SHT31;58740;50.672;18.690;2023-07-29T12:28:04;25.18;58.50
71082;SHT31;58740;50.672;18.690;2023-07-29T12:30:34;25.26;58.84
71082;SHT31;58740;50.672;18.690;2023-07-29T12:33:08;25.35;59.87
71082;SHT31;58740;50.672;18.690;2023-07-29T12:35:37;25.38;58.81
71082;SHT31;58740;50.672;18.690;2023-07-29T12:38:06;25.35;59.15
71082;SHT31;58740;50.672;18.690;2023-07-29T12:40:37;25.31;58.51
71082;SHT31;58740;50.672;18.690;2023-07-29T12:43:07;25.25;58.01
71082;SHT31;58740;50.672;18.690;2023-07-29T12:45:35;25.22;58.26
71082;SHT31;58740;50.672;18.690;2023-07-29T12:48:07;25.18;58.05
71082;SHT31;58740;50.672;18.690;2023-07-29T12:50:40;25.15;58.33
71082;SHT31;58740;50.672;18.690;2023-07-29T12:53:08;25.13;58.66
71082;SHT31;58740;50.672;18.690;2023-07-29T12:55:39;25.11;59.31
71082;SHT31;58740;50.672;18.690;2023-07-29T12:58:07;25.09;58.98
71082;SHT31;58740;50.672;18.690;2023-07-29T13:00:34;25.10;59.39
71082;SHT31;58740;50.672;18.690;2023-07-29T13:03:02;25.09;59.02
71082;SHT31;58740;50.672;18.690;2023-07-29T13:05:33;25.10;58.61
71082;SHT31;58740;50.672;18.690;2023-07-29T13:08:01;25.07;59.07
71082;SHT31;58740;50.672;18.690;2023-07-29T13:10:29;25.06;58.68
71082;SHT31;58740;50.672;18.690;2023-07-29T13:12:56;25.02;58.53
71082;SHT31;58740;50.672;18.690;2023-07-29T13:15:24;24.98;58.29
71082;SHT31;58740;50.672;18.690;2023-07-29T13:17:52;24.96;58.66
71082;SHT31;58740;50.672;18.690;2023-07-29T13:20:19;24.97;59.20
71082;SHT31;58740;50.672;18.690;2023-07-29T13:22:47;24.98;59.15
71082;SHT31;58740;50.672;18.690;2023-07-29T13:25:15;25.01;59.68
71082;SHT31;58740;50.672;18.690;2023-07-29T13:27:43;25.03;59.44
71082;SHT31;58740;50.672;18.690;2023-07-29T13:30:10;25.05;59.66
71082;SHT31;58740;50.672;18.690;2023-07-29T13:32:38;25.07;59.77
71082;SHT31;58740;50.672;18.690;2023-07-29T13:35:06;25.12;60.13
71082;SHT31;58740;50.672;18.690;2023-07-29T13:37:34;25.21;59.97
71082;SHT31;58740;50.672;18.690;2023-07-29T13:40:02;25.28;58.87
71082;SHT31;58740;50.672;18.690;2023-07-29T13:42:30;25.34;58.34
71082;SHT31;58740;50.672;18.690;2023-07-29T13:44:58;25.39;57.63
71082;SHT31;58740;50.672;18.690;2023-07-29T13:47:26;25.42;56.76
71082;SHT31;58740;50.672;18.690;2023-07-29T13:49:53;25.43;56.65
71082;SHT31;58740;50.672;18.690;2023-07-29T13:52:21;25.47;58.22
71082;SHT31;58740;50.672;18.690;2023-07-29T13:54:49;25.50;58.74
71082;SHT31;58740;50.672;18.690;2023-07-29T13:57:17;25.52;57.00
71082;SHT31;58740;50.672;18.690;2023-07-29T13:59:44;25.50;56.56
71082;SHT31;58740;50.672;18.690;2023-07-29T14:02:12;25.48;57.02
71082;SHT31;58740;50.672;18.690;2023-07-29T14:04:41;25.43;57.43
71082;SHT31;58740;50.672;18.690;2023-07-29T14:07:09;25.43;58.30
71082;SHT31;58740;50.672;18.690;2023-07-29T14:09:36;25.42;58.26
71082;SHT31;58740;50.672;18.690;2023-07-29T14:12:05;25.42;57.53
71082;SHT31;58740;50.672;18.690;2023-07-29T14:14:33;25.40;57.71
71082;SHT31;58740;50.672;18.690;2023-07-29T14:17:01;25.41;58.50
71082;SHT31;58740;50.672;18.690;2023-07-29T14:19:29;25.41;59.15
71082;SHT31;58740;50.672;18.690;2023-07-29T14:21:58;25.40;58.65
71082;SHT31;58740;50.672;18.690;2023-07-29T14:24:26;25.37;59.05
71082;SHT31;58740;50.672;18.690;2023-07-29T14:26:54;25.37;59.17
71082;SHT31;58740;50.672;18.690;2023-07-29T14:29:21;25.38;59.08
71082;SHT31;58740;50.672;18.690;2023-07-29T14:31:49;25.40;59.21
71082;SHT31;58740;50.672;18.690;2023-07-29T14:34:17;25.39;57.69
71082;SHT31;58740;50.672;18.690;2023-07-29T14:36:45;25.39;57.45
71082;SHT31;58740;50.672;18.690;2023-07-29T14:39:12;25.41;57.31
71082;SHT31;58740;50.672;18.690;2023-07-29T14:41:40;25.41;58.43
71082;SHT31;58740;50.672;18.690;2023-07-29T14:44:08;25.43;58.36
71082;SHT31;58740;50.672;18.690;2023-07-29T14:46:35;25.46;58.63
71082;SHT31;58740;50.672;18.690;2023-07-29T14:49:04;25.46;58.22
71082;SHT31;58740;50.672;18.690;2023-07-29T14:51:31;25.46;57.67
71082;SHT31;58740;50.672;18.690;2023-07-29T14:53:59;25.47;57.72
71082;SHT31;58740;50.672;18.690;2023-07-29T14:56:27;25.48;58.04
71082;SHT31;58740;50.672;18.690;2023-07-29T14:58:55;25.49;57.88
71082;SHT31;58740;50.672;18.690;2023-07-29T15:01:23;25.49;58.04
71082;SHT31;58740;50.672;18.690;2023-07-29T15:03:50;25.49;57.90
71082;SHT31;58740;50.672;18.690;2023-07-29T15:06:18;25.48;58.18
71082;SHT31;58740;50.672;18.690;2023-07-29T15:08:47;25.47;58.60
71082;SHT31;58740;50.672;18.690;2023-07-29T15:11:15;25.47;58.02
71082;SHT31;58740;50.672;18.690;2023-07-29T15:13:43;25.47;58.48
71082;SHT31;58740;50.672;18.690;2023-07-29T15:16:10;25.46;58.45
71082;SHT31;58740;50.672;18.690;2023-07-29T15:18:38;25.50;58.49
71082;SHT31;58740;50.672;18.690;2023-07-29T15:21:06;25.52;58.73
71082;SHT31;58740;50.672;18.690;2023-07-29T15:23:33;25.53;58.83
71082;SHT31;58740;50.672;18.690;2023-07-29T15:26:01;25.55;59.01
71082;SHT31;58740;50.672;18.690;2023-07-29T15:28:29;25.54;58.87
71082;SHT31;58740;50.672;18.690;2023-07-29T15:30:56;25.53;59.09
71082;SHT31;58740;50.672;18.690;2023-07-29T15:33:24;25.51;57.69
71082;SHT31;58740;50.672;18.690;2023-07-29T15:35:52;25.47;57.49
71082;SHT31;58740;50.672;18.690;2023-07-29T15:38:20;25.44;57.57
71082;SHT31;58740;50.672;18.690;2023-07-29T15:40:48;25.42;57.07
71082;SHT31;58740;50.672;18.690;2023-07-29T15:43:19;25.40;57.44